sensor_id;sensor_type;location;lat;lon;timestamp;P1;durP1;ratioP1;P2;durP2;ratioP2
28625;SDS011;18905;42.668;23.364;2023-05-07T00:01:53;15.90;;;8.68;;
28625;SDS011;18905;42.668;23.364;2023-05-07T01:38:26;10.40;;;6.57;;
28625;SDS011;18905;42.668;23.364;2023-05-07T02:29:53;19.73;;;8.68;;
28625;SDS011;18905;42.668;23.364;2023-05-07T02:32:19;15.73;;;8.85;;
28625;SDS011;18905;42.668;23.364;2023-05-07T02:34:49;14.05;;;8.63;;
28625;SDS011;18905;42.668;23.364;2023-05-07T02:37:18;12.88;;;8.27;;
28625;SDS011;18905;42.668;23.364;2023-05-07T02:39:47;15.48;;;8.75;;
28625;SDS011;18905;42.668;23.364;2023-05-07T02:42:13;13.63;;;9.70;;
28625;SDS011;18905;42.668;23.364;2023-05-07T02:44:41;14.15;;;9.02;;
28625;SDS011;18905;42.668;23.364;2023-05-07T03:54:56;16.58;;;11.43;;
28625;SDS011;18905;42.668;23.364;2023-05-07T03:57:22;16.35;;;11.75;;
28625;SDS011;18905;42.668;23.364;2023-05-07T03:59:48;17.08;;;12.02;;
28625;SDS011;18905;42.668;23.364;2023-05-07T04:02:14;20.08;;;13.70;;
28625;SDS011;18905;42.668;23.364;2023-05-07T04:04:40;19.00;;;12.07;;
28625;SDS011;18905;42.668;23.364;2023-05-07T04:07:08;22.15;;;14.23;;
28625;SDS011;18905;42.668;23.364;2023-05-07T04:09:35;18.58;;;13.27;;
28625;SDS011;18905;42.668;23.364;2023-05-07T04:12:01;20.17;;;14.25;;
28625;SDS011;18905;42.668;23.364;2023-05-07T04:32:33;13.75;;;9.07;;
28625;SDS011;18905;42.668;23.364;2023-05-07T04:34:59;15.40;;;9.60;;
28625;SDS011;18905;42.668;23.364;2023-05-07T04:37:25;13.23;;;8.55;;
28625;SDS011;18905;42.668;23.364;2023-05-07T04:39:53;19.45;;;8.40;;
28625;SDS011;18905;42.668;23.364;2023-05-07T04:42:19;14.60;;;9.02;;
28625;SDS011;18905;42.668;23.364;2023-05-07T04:44:45;13.35;;;8.60;;
28625;SDS011;18905;42.668;23.364;2023-05-07T04:47:11;13.35;;;8.55;;
28625;SDS011;18905;42.668;23.364;2023-05-07T04:49:38;12.45;;;8.35;;
28625;SDS011;18905;42.668;23.364;2023-05-07T04:52:04;11.70;;;9.13;;
28625;SDS011;18905;42.668;23.364;2023-05-07T04:54:30;17.02;;;8.57;;
28625;SDS011;18905;42.668;23.364;2023-05-07T04:56:55;13.90;;;9.57;;
28625;SDS011;18905;42.668;23.364;2023-05-07T04:59:21;15.13;;;9.77;;
28625;SDS011;18905;42.668;23.364;2023-05-07T05:01:47;18.60;;;9.93;;
28625;SDS011;18905;42.668;23.364;2023-05-07T05:04:13;13.75;;;9.45;;
28625;SDS011;18905;42.668;23.364;2023-05-07T05:06:39;16.02;;;10.35;;
28625;SDS011;18905;42.668;23.364;2023-05-07T05:09:05;15.73;;;9.95;;
28625;SDS011;18905;42.668;23.364;2023-05-07T05:11:31;18.00;;;9.25;;
28625;SDS011;18905;42.668;23.364;2023-05-07T05:13:59;14.63;;;9.20;;
28625;SDS011;18905;42.668;23.364;2023-05-07T05:16:25;15.13;;;9.30;;
28625;SDS011;18905;42.668;23.364;2023-05-07T05:18:51;13.85;;;9.75;;
28625;SDS011;18905;42.668;23.364;2023-05-07T05:21:17;15.25;;;10.27;;
28625;SDS011;18905;42.668;23.364;2023-05-07T05:23:43;20.42;;;10.52;;
28625;SDS011;18905;42.668;23.364;2023-05-07T05:26:09;13.00;;;9.65;;
28625;SDS011;18905;42.668;23.364;2023-05-07T05:28:34;15.05;;;10.27;;
28625;SDS011;18905;42.668;23.364;2023-05-07T05:31:00;13.65;;;9.68;;
28625;SDS011;18905;42.668;23.364;2023-05-07T05:33:26;15.63;;;10.48;;
28625;SDS011;18905;42.668;23.364;2023-05-07T05:35:53;17.02;;;10.80;;
28625;SDS011;18905;42.668;23.364;2023-05-07T05:40:54;16.33;;;9.35;;
28625;SDS011;18905;42.668;23.364;2023-05-07T05:43:20;14.73;;;10.60;;
28625;SDS011;18905;42.668;23.364;2023-05-07T05:48:21;14.63;;;10.27;;
28625;SDS011;18905;42.668;23.364;2023-05-07T05:50:47;16.17;;;10.73;;
28625;SDS011;18905;42.668;23.364;2023-05-07T05:53:13;11.95;;;9.57;;
28625;SDS011;18905;42.668;23.364;2023-05-07T05:55:39;17.02;;;10.50;;
28625;SDS011;18905;42.668;23.364;2023-05-07T05:58:14;16.85;;;10.48;;
28625;SDS011;18905;42.668;23.364;2023-05-07T06:01:30;17.13;;;10.38;;
28625;SDS011;18905;42.668;23.364;2023-05-07T06:06:31;14.80;;;10.32;;
28625;SDS011;18905;42.668;23.364;2023-05-07T06:08:57;13.55;;;10.05;;
28625;SDS011;18905;42.668;23.364;2023-05-07T06:11:23;14.43;;;10.05;;
28625;SDS011;18905;42.668;23.364;2023-05-07T06:16:24;14.75;;;9.45;;
28625;SDS011;18905;42.668;23.364;2023-05-07T06:18:50;13.25;;;9.68;;
28625;SDS011;18905;42.668;23.364;2023-05-07T06:21:15;17.38;;;10.05;;
28625;SDS011;18905;42.668;23.364;2023-05-07T06:23:41;15.18;;;9.85;;
28625;SDS011;18905;42.668;23.364;2023-05-07T06:31:18;13.55;;;9.57;;
28625;SDS011;18905;42.668;23.364;2023-05-07T06:33:47;13.95;;;9.32;;
28625;SDS011;18905;42.668;23.364;2023-05-07T06:36:14;19.27;;;10.32;;
28625;SDS011;18905;42.668;23.364;2023-05-07T06:38:39;14.23;;;9.02;;
28625;SDS011;18905;42.668;23.364;2023-05-07T06:41:07;13.82;;;9.18;;
28625;SDS011;18905;42.668;23.364;2023-05-07T06:43:33;13.25;;;8.95;;
28625;SDS011;18905;42.668;23.364;2023-05-07T06:45:58;13.27;;;8.98;;
28625;SDS011;18905;42.668;23.364;2023-05-07T06:48:24;18.95;;;8.80;;
28625;SDS011;18905;42.668;23.364;2023-05-07T06:50:49;14.90;;;8.93;;
28625;SDS011;18905;42.668;23.364;2023-05-07T06:53:15;15.23;;;8.73;;
28625;SDS011;18905;42.668;23.364;2023-05-07T06:55:40;18.13;;;8.07;;
28625;SDS011;18905;42.668;23.364;2023-05-07T06:58:06;12.07;;;7.70;;
28625;SDS011;18905;42.668;23.364;2023-05-07T07:00:32;15.85;;;8.43;;
28625;SDS011;18905;42.668;23.364;2023-05-07T07:02:57;15.20;;;8.23;;
28625;SDS011;18905;42.668;23.364;2023-05-07T07:05:24;15.65;;;8.43;;
28625;SDS011;18905;42.668;23.364;2023-05-07T07:07:49;17.60;;;8.57;;
28625;SDS011;18905;42.668;23.364;2023-05-07T07:10:20;17.73;;;8.48;;
28625;SDS011;18905;42.668;23.364;2023-05-07T07:12:47;13.65;;;9.10;;
28625;SDS011;18905;42.668;23.364;2023-05-07T07:15:13;13.95;;;9.10;;
28625;SDS011;18905;42.668;23.364;2023-05-07T07:17:39;16.17;;;8.70;;
28625;SDS011;18905;42.668;23.364;2023-05-07T07:20:04;18.10;;;8.88;;
28625;SDS011;18905;42.668;23.364;2023-05-07T07:22:30;13.48;;;8.63;;
28625;SDS011;18905;42.668;23.364;2023-05-07T07:24:56;20.13;;;9.38;;
28625;SDS011;18905;42.668;23.364;2023-05-07T07:27:21;16.00;;;8.95;;
28625;SDS011;18905;42.668;23.364;2023-05-07T07:29:47;14.75;;;8.45;;
28625;SDS011;18905;42.668;23.364;2023-05-07T07:32:12;13.68;;;8.45;;
28625;SDS011;18905;42.668;23.364;2023-05-07T07:34:38;14.00;;;8.90;;
28625;SDS011;18905;42.668;23.364;2023-05-07T07:37:03;14.10;;;8.57;;
28625;SDS011;18905;42.668;23.364;2023-05-07T07:39:31;13.32;;;8.30;;
28625;SDS011;18905;42.668;23.364;2023-05-07T07:41:57;11.93;;;7.40;;
28625;SDS011;18905;42.668;23.364;2023-05-07T07:44:23;18.15;;;9.55;;
28625;SDS011;18905;42.668;23.364;2023-05-07T07:46:48;10.85;;;9.35;;
28625;SDS011;18905;42.668;23.364;2023-05-07T07:49:14;16.67;;;9.85;;
28625;SDS011;18905;42.668;23.364;2023-05-07T07:51:40;19.65;;;10.07;;
28625;SDS011;18905;42.668;23.364;2023-05-07T07:54:05;14.18;;;9.50;;
28625;SDS011;18905;42.668;23.364;2023-05-07T07:56:32;18.98;;;10.55;;
28625;SDS011;18905;42.668;23.364;2023-05-07T08:01:33;16.40;;;10.80;;
28625;SDS011;18905;42.668;23.364;2023-05-07T08:03:59;18.63;;;10.02;;
28625;SDS011;18905;42.668;23.364;2023-05-07T08:06:25;16.55;;;11.25;;
28625;SDS011;18905;42.668;23.364;2023-05-07T08:08:51;16.92;;;11.07;;
28625;SDS011;18905;42.668;23.364;2023-05-07T08:11:18;20.65;;;12.50;;
28625;SDS011;18905;42.668;23.364;2023-05-07T08:13:44;16.02;;;11.55;;
28625;SDS011;18905;42.668;23.364;2023-05-07T08:18:55;14.27;;;10.55;;
28625;SDS011;18905;42.668;23.364;2023-05-07T08:21:21;19.85;;;11.30;;
28625;SDS011;18905;42.668;23.364;2023-05-07T08:23:48;15.75;;;11.02;;
28625;SDS011;18905;42.668;23.364;2023-05-07T08:26:14;18.27;;;10.95;;
28625;SDS011;18905;42.668;23.364;2023-05-07T08:28:40;18.42;;;11.50;;
28625;SDS011;18905;42.668;23.364;2023-05-07T08:31:06;17.48;;;10.38;;
28625;SDS011;18905;42.668;23.364;2023-05-07T08:33:31;20.67;;;11.23;;
28625;SDS011;18905;42.668;23.364;2023-05-07T08:35:57;14.75;;;10.13;;
28625;SDS011;18905;42.668;23.364;2023-05-07T08:38:23;17.30;;;10.32;;
28625;SDS011;18905;42.668;23.364;2023-05-07T08:40:49;13.00;;;8.98;;
28625;SDS011;18905;42.668;23.364;2023-05-07T08:43:15;15.68;;;9.55;;
28625;SDS011;18905;42.668;23.364;2023-05-07T08:45:41;14.68;;;9.45;;
28625;SDS011;18905;42.668;23.364;2023-05-07T08:50:45;15.77;;;9.05;;
28625;SDS011;18905;42.668;23.364;2023-05-07T08:53:11;17.25;;;8.23;;
28625;SDS011;18905;42.668;23.364;2023-05-07T08:55:37;15.02;;;8.98;;
28625;SDS011;18905;42.668;23.364;2023-05-07T08:58:03;13.23;;;8.15;;
28625;SDS011;18905;42.668;23.364;2023-05-07T09:00:28;13.75;;;7.47;;
28625;SDS011;18905;42.668;23.364;2023-05-07T09:02:55;12.02;;;6.93;;
28625;SDS011;18905;42.668;23.364;2023-05-07T09:05:20;12.73;;;7.88;;
28625;SDS011;18905;42.668;23.364;2023-05-07T09:07:46;13.55;;;8.00;;
28625;SDS011;18905;42.668;23.364;2023-05-07T09:10:13;14.30;;;7.88;;
28625;SDS011;18905;42.668;23.364;2023-05-07T09:12:39;11.10;;;7.20;;
28625;SDS011;18905;42.668;23.364;2023-05-07T09:15:06;11.50;;;6.40;;
28625;SDS011;18905;42.668;23.364;2023-05-07T09:17:32;10.00;;;7.05;;
28625;SDS011;18905;42.668;23.364;2023-05-07T09:20:04;11.55;;;6.88;;
28625;SDS011;18905;42.668;23.364;2023-05-07T09:22:36;8.00;;;6.60;;
28625;SDS011;18905;42.668;23.364;2023-05-07T09:25:03;11.52;;;6.95;;
28625;SDS011;18905;42.668;23.364;2023-05-07T09:27:29;8.55;;;5.95;;
28625;SDS011;18905;42.668;23.364;2023-05-07T09:29:55;13.38;;;5.80;;
28625;SDS011;18905;42.668;23.364;2023-05-07T09:32:21;9.15;;;6.15;;
28625;SDS011;18905;42.668;23.364;2023-05-07T09:39:57;9.52;;;5.95;;
28625;SDS011;18905;42.668;23.364;2023-05-07T09:42:23;11.13;;;5.38;;
28625;SDS011;18905;42.668;23.364;2023-05-07T09:44:53;7.47;;;5.22;;
28625;SDS011;18905;42.668;23.364;2023-05-07T09:47:19;8.05;;;5.20;;
28625;SDS011;18905;42.668;23.364;2023-05-07T09:52:23;10.35;;;4.78;;
28625;SDS011;18905;42.668;23.364;2023-05-07T09:54:53;6.95;;;4.43;;
28625;SDS011;18905;42.668;23.364;2023-05-07T09:57:24;9.20;;;4.55;;
28625;SDS011;18905;42.668;23.364;2023-05-07T09:59:51;6.72;;;4.35;;
28625;SDS011;18905;42.668;23.364;2023-05-07T10:04:54;9.98;;;4.28;;
28625;SDS011;18905;42.668;23.364;2023-05-07T10:07:20;7.82;;;4.20;;
28625;SDS011;18905;42.668;23.364;2023-05-07T10:17:33;6.28;;;4.18;;
28625;SDS011;18905;42.668;23.364;2023-05-07T10:20:01;6.43;;;4.10;;
28625;SDS011;18905;42.668;23.364;2023-05-07T10:22:27;7.72;;;4.50;;
28625;SDS011;18905;42.668;23.364;2023-05-07T10:25:02;7.43;;;4.40;;
28625;SDS011;18905;42.668;23.364;2023-05-07T10:35:25;8.27;;;3.75;;
28625;SDS011;18905;42.668;23.364;2023-05-07T10:38:02;5.82;;;3.95;;
28625;SDS011;18905;42.668;23.364;2023-05-07T10:40:28;8.50;;;4.30;;
28625;SDS011;18905;42.668;23.364;2023-05-07T10:43:01;8.65;;;4.18;;
28625;SDS011;18905;42.668;23.364;2023-05-07T10:45:30;10.10;;;3.95;;
28625;SDS011;18905;42.668;23.364;2023-05-07T10:50:36;6.15;;;4.82;;
28625;SDS011;18905;42.668;23.364;2023-05-07T10:58:43;6.20;;;4.13;;
28625;SDS011;18905;42.668;23.364;2023-05-07T11:01:08;10.20;;;4.45;;
28625;SDS011;18905;42.668;23.364;2023-05-07T11:03:36;8.20;;;4.20;;
28625;SDS011;18905;42.668;23.364;2023-05-07T11:06:52;6.47;;;3.55;;
28625;SDS011;18905;42.668;23.364;2023-05-07T11:13:02;8.80;;;3.67;;
28625;SDS011;18905;42.668;23.364;2023-05-07T11:17:29;11.73;;;4.25;;
28625;SDS011;18905;42.668;23.364;2023-05-07T11:19:57;4.90;;;3.65;;
28625;SDS011;18905;42.668;23.364;2023-05-07T11:27:40;5.43;;;3.53;;
28625;SDS011;18905;42.668;23.364;2023-05-07T11:30:07;6.90;;;4.03;;
28625;SDS011;18905;42.668;23.364;2023-05-07T11:32:34;3.88;;;3.47;;
28625;SDS011;18905;42.668;23.364;2023-05-07T11:35:00;5.95;;;3.95;;
28625;SDS011;18905;42.668;23.364;2023-05-07T11:37:26;8.40;;;3.85;;
28625;SDS011;18905;42.668;23.364;2023-05-07T11:40:07;4.60;;;3.88;;
28625;SDS011;18905;42.668;23.364;2023-05-07T11:42:35;5.68;;;3.70;;
28625;SDS011;18905;42.668;23.364;2023-05-07T11:45:05;6.50;;;3.80;;
28625;SDS011;18905;42.668;23.364;2023-05-07T11:47:32;8.43;;;3.47;;
28625;SDS011;18905;42.668;23.364;2023-05-07T11:50:06;6.53;;;3.55;;
28625;SDS011;18905;42.668;23.364;2023-05-07T11:52:33;6.80;;;3.80;;
28625;SDS011;18905;42.668;23.364;2023-05-07T11:54:59;4.50;;;3.60;;
28625;SDS011;18905;42.668;23.364;2023-05-07T11:57:26;8.48;;;3.53;;
28625;SDS011;18905;42.668;23.364;2023-05-07T11:59:53;4.28;;;3.38;;
28625;SDS011;18905;42.668;23.364;2023-05-07T12:02:23;5.38;;;3.47;;
28625;SDS011;18905;42.668;23.364;2023-05-07T12:04:53;5.57;;;4.00;;
28625;SDS011;18905;42.668;23.364;2023-05-07T12:07:19;9.98;;;4.38;;
28625;SDS011;18905;42.668;23.364;2023-05-07T12:09:46;7.07;;;3.85;;
28625;SDS011;18905;42.668;23.364;2023-05-07T12:12:12;9.75;;;3.90;;
28625;SDS011;18905;42.668;23.364;2023-05-07T12:14:41;3.65;;;3.20;;
28625;SDS011;18905;42.668;23.364;2023-05-07T12:17:08;5.72;;;3.97;;
28625;SDS011;18905;42.668;23.364;2023-05-07T12:19:35;5.97;;;3.60;;
28625;SDS011;18905;42.668;23.364;2023-05-07T12:22:05;4.65;;;3.72;;
28625;SDS011;18905;42.668;23.364;2023-05-07T12:32:21;5.00;;;3.70;;
28625;SDS011;18905;42.668;23.364;2023-05-07T12:34:49;4.35;;;3.72;;
28625;SDS011;18905;42.668;23.364;2023-05-07T12:42:26;8.50;;;3.60;;
28625;SDS011;18905;42.668;23.364;2023-05-07T12:44:52;4.05;;;2.92;;
28625;SDS011;18905;42.668;23.364;2023-05-07T12:47:17;5.65;;;3.30;;
28625;SDS011;18905;42.668;23.364;2023-05-07T12:49:43;3.95;;;2.70;;
28625;SDS011;18905;42.668;23.364;2023-05-07T12:52:11;2.97;;;2.60;;
28625;SDS011;18905;42.668;23.364;2023-05-07T12:54:37;3.00;;;2.60;;
28625;SDS011;18905;42.668;23.364;2023-05-07T12:57:07;4.63;;;2.97;;
28625;SDS011;18905;42.668;23.364;2023-05-07T12:59:36;5.40;;;2.75;;
28625;SDS011;18905;42.668;23.364;2023-05-07T13:02:02;3.30;;;2.40;;
28625;SDS011;18905;42.668;23.364;2023-05-07T13:04:28;6.32;;;2.50;;
28625;SDS011;18905;42.668;23.364;2023-05-07T13:06:53;4.65;;;2.85;;
28625;SDS011;18905;42.668;23.364;2023-05-07T13:09:19;6.90;;;2.60;;
28625;SDS011;18905;42.668;23.364;2023-05-07T13:11:45;3.92;;;2.90;;
28625;SDS011;18905;42.668;23.364;2023-05-07T13:14:10;4.35;;;2.72;;
28625;SDS011;18905;42.668;23.364;2023-05-07T13:16:37;5.95;;;2.80;;
28625;SDS011;18905;42.668;23.364;2023-05-07T13:19:02;3.28;;;2.75;;
28625;SDS011;18905;42.668;23.364;2023-05-07T13:21:29;3.80;;;3.00;;
28625;SDS011;18905;42.668;23.364;2023-05-07T13:23:56;5.60;;;2.80;;
28625;SDS011;18905;42.668;23.364;2023-05-07T13:26:23;5.75;;;2.72;;
28625;SDS011;18905;42.668;23.364;2023-05-07T13:28:49;3.38;;;2.47;;
28625;SDS011;18905;42.668;23.364;2023-05-07T13:31:16;6.18;;;2.60;;
28625;SDS011;18905;42.668;23.364;2023-05-07T13:33:42;4.20;;;2.92;;
28625;SDS011;18905;42.668;23.364;2023-05-07T13:36:08;4.10;;;2.90;;
28625;SDS011;18905;42.668;23.364;2023-05-07T13:38:34;4.38;;;2.92;;
28625;SDS011;18905;42.668;23.364;2023-05-07T13:41:00;4.00;;;3.00;;
28625;SDS011;18905;42.668;23.364;2023-05-07T13:43:27;9.25;;;3.08;;
28625;SDS011;18905;42.668;23.364;2023-05-07T13:45:53;5.78;;;2.85;;
28625;SDS011;18905;42.668;23.364;2023-05-07T13:48:18;5.97;;;2.53;;
28625;SDS011;18905;42.668;23.364;2023-05-07T13:50:44;7.97;;;2.90;;
28625;SDS011;18905;42.668;23.364;2023-05-07T13:53:10;3.30;;;2.75;;
28625;SDS011;18905;42.668;23.364;2023-05-07T13:55:35;3.42;;;2.70;;
28625;SDS011;18905;42.668;23.364;2023-05-07T13:58:01;2.90;;;2.60;;
28625;SDS011;18905;42.668;23.364;2023-05-07T14:00:28;5.07;;;2.67;;
28625;SDS011;18905;42.668;23.364;2023-05-07T14:02:54;4.95;;;2.60;;
28625;SDS011;18905;42.668;23.364;2023-05-07T14:05:21;4.60;;;3.10;;
28625;SDS011;18905;42.668;23.364;2023-05-07T14:07:53;3.40;;;2.50;;
28625;SDS011;18905;42.668;23.364;2023-05-07T14:10:21;4.18;;;2.65;;
28625;SDS011;18905;42.668;23.364;2023-05-07T14:12:47;3.75;;;2.20;;
28625;SDS011;18905;42.668;23.364;2023-05-07T14:15:13;2.90;;;2.45;;
28625;SDS011;18905;42.668;23.364;2023-05-07T14:17:39;3.83;;;2.63;;
28625;SDS011;18905;42.668;23.364;2023-05-07T14:20:05;8.38;;;2.80;;
28625;SDS011;18905;42.668;23.364;2023-05-07T14:22:35;3.08;;;2.78;;
28625;SDS011;18905;42.668;23.364;2023-05-07T14:25:01;3.58;;;2.70;;
28625;SDS011;18905;42.668;23.364;2023-05-07T14:27:27;6.35;;;2.80;;
28625;SDS011;18905;42.668;23.364;2023-05-07T14:29:53;3.58;;;2.45;;
28625;SDS011;18905;42.668;23.364;2023-05-07T14:34:54;4.35;;;2.72;;
28625;SDS011;18905;42.668;23.364;2023-05-07T14:37:19;11.32;;;2.90;;
28625;SDS011;18905;42.668;23.364;2023-05-07T14:39:45;4.78;;;3.03;;
28625;SDS011;18905;42.668;23.364;2023-05-07T14:42:11;7.13;;;2.80;;
28625;SDS011;18905;42.668;23.364;2023-05-07T14:44:37;3.88;;;2.70;;
28625;SDS011;18905;42.668;23.364;2023-05-07T14:47:05;6.47;;;2.90;;
28625;SDS011;18905;42.668;23.364;2023-05-07T14:49:31;18.17;;;3.10;;
28625;SDS011;18905;42.668;23.364;2023-05-07T14:51:57;4.65;;;2.83;;
28625;SDS011;18905;42.668;23.364;2023-05-07T14:54:24;5.35;;;3.10;;
28625;SDS011;18905;42.668;23.364;2023-05-07T14:56:50;3.72;;;2.67;;
28625;SDS011;18905;42.668;23.364;2023-05-07T15:01:51;3.67;;;2.65;;
28625;SDS011;18905;42.668;23.364;2023-05-07T15:04:17;5.53;;;2.78;;
28625;SDS011;18905;42.668;23.364;2023-05-07T15:06:43;4.65;;;2.53;;
28625;SDS011;18905;42.668;23.364;2023-05-07T15:09:09;2.63;;;2.40;;
28625;SDS011;18905;42.668;23.364;2023-05-07T15:11:34;4.22;;;2.72;;
28625;SDS011;18905;42.668;23.364;2023-05-07T15:14:00;5.10;;;2.72;;
28625;SDS011;18905;42.668;23.364;2023-05-07T15:16:26;6.57;;;2.92;;
28625;SDS011;18905;42.668;23.364;2023-05-07T15:24:02;3.72;;;3.15;;
28625;SDS011;18905;42.668;23.364;2023-05-07T15:26:28;7.13;;;2.95;;
28625;SDS011;18905;42.668;23.364;2023-05-07T15:28:54;6.22;;;2.47;;
28625;SDS011;18905;42.668;23.364;2023-05-07T15:31:22;7.03;;;2.80;;
28625;SDS011;18905;42.668;23.364;2023-05-07T15:33:48;3.45;;;2.92;;
28625;SDS011;18905;42.668;23.364;2023-05-07T15:36:16;3.80;;;2.90;;
28625;SDS011;18905;42.668;23.364;2023-05-07T15:38:42;6.15;;;2.63;;
28625;SDS011;18905;42.668;23.364;2023-05-07T15:41:08;4.70;;;2.65;;
28625;SDS011;18905;42.668;23.364;2023-05-07T15:43:38;3.25;;;2.63;;
28625;SDS011;18905;42.668;23.364;2023-05-07T15:46:11;3.38;;;2.58;;
28625;SDS011;18905;42.668;23.364;2023-05-07T15:48:36;5.85;;;2.85;;
28625;SDS011;18905;42.668;23.364;2023-05-07T15:51:02;7.13;;;2.85;;
28625;SDS011;18905;42.668;23.364;2023-05-07T15:53:29;6.28;;;2.83;;
28625;SDS011;18905;42.668;23.364;2023-05-07T15:55:55;5.50;;;2.63;;
28625;SDS011;18905;42.668;23.364;2023-05-07T15:58:20;7.90;;;3.35;;
28625;SDS011;18905;42.668;23.364;2023-05-07T16:00:46;9.35;;;3.10;;
28625;SDS011;18905;42.668;23.364;2023-05-07T16:03:11;7.47;;;2.75;;
28625;SDS011;18905;42.668;23.364;2023-05-07T16:05:37;8.25;;;3.08;;
28625;SDS011;18905;42.668;23.364;2023-05-07T16:08:02;6.57;;;2.83;;
28625;SDS011;18905;42.668;23.364;2023-05-07T16:10:28;4.43;;;2.75;;
28625;SDS011;18905;42.668;23.364;2023-05-07T16:12:55;3.17;;;2.63;;
28625;SDS011;18905;42.668;23.364;2023-05-07T16:15:20;3.53;;;2.90;;
28625;SDS011;18905;42.668;23.364;2023-05-07T16:17:46;5.35;;;3.00;;
28625;SDS011;18905;42.668;23.364;2023-05-07T16:20:15;5.75;;;2.97;;
28625;SDS011;18905;42.668;23.364;2023-05-07T16:22:44;5.28;;;3.00;;
28625;SDS011;18905;42.668;23.364;2023-05-07T16:25:10;8.35;;;3.00;;
28625;SDS011;18905;42.668;23.364;2023-05-07T16:27:38;7.75;;;2.85;;
28625;SDS011;18905;42.668;23.364;2023-05-07T16:30:04;4.80;;;2.90;;
28625;SDS011;18905;42.668;23.364;2023-05-07T16:32:31;8.70;;;2.90;;
28625;SDS011;18905;42.668;23.364;2023-05-07T16:34:57;7.00;;;2.67;;
28625;SDS011;18905;42.668;23.364;2023-05-07T16:37:22;3.50;;;2.60;;
28625;SDS011;18905;42.668;23.364;2023-05-07T16:39:48;6.00;;;3.10;;
28625;SDS011;18905;42.668;23.364;2023-05-07T16:42:13;6.28;;;3.08;;
28625;SDS011;18905;42.668;23.364;2023-05-07T16:44:39;5.25;;;2.70;;
28625;SDS011;18905;42.668;23.364;2023-05-07T16:47:05;8.23;;;3.22;;
28625;SDS011;18905;42.668;23.364;2023-05-07T16:49:30;7.97;;;3.75;;
28625;SDS011;18905;42.668;23.364;2023-05-07T16:51:56;4.95;;;3.45;;
28625;SDS011;18905;42.668;23.364;2023-05-07T16:54:21;10.00;;;3.20;;
28625;SDS011;18905;42.668;23.364;2023-05-07T16:56:47;5.20;;;3.03;;
28625;SDS011;18905;42.668;23.364;2023-05-07T16:59:12;7.18;;;3.28;;
28625;SDS011;18905;42.668;23.364;2023-05-07T17:01:38;7.72;;;3.42;;
28625;SDS011;18905;42.668;23.364;2023-05-07T17:04:06;6.85;;;3.22;;
28625;SDS011;18905;42.668;23.364;2023-05-07T17:06:32;8.55;;;3.40;;
28625;SDS011;18905;42.668;23.364;2023-05-07T17:08:58;6.45;;;3.17;;
28625;SDS011;18905;42.668;23.364;2023-05-07T17:11:23;7.20;;;3.25;;
28625;SDS011;18905;42.668;23.364;2023-05-07T17:13:51;8.40;;;4.20;;
28625;SDS011;18905;42.668;23.364;2023-05-07T17:16:17;8.93;;;3.50;;
28625;SDS011;18905;42.668;23.364;2023-05-07T17:18:43;4.65;;;2.97;;
28625;SDS011;18905;42.668;23.364;2023-05-07T17:21:08;5.32;;;3.13;;
28625;SDS011;18905;42.668;23.364;2023-05-07T17:23:34;7.45;;;3.47;;
28625;SDS011;18905;42.668;23.364;2023-05-07T17:25:59;5.25;;;3.35;;
28625;SDS011;18905;42.668;23.364;2023-05-07T17:28:25;8.52;;;3.63;;
28625;SDS011;18905;42.668;23.364;2023-05-07T17:30:50;4.80;;;3.33;;
28625;SDS011;18905;42.668;23.364;2023-05-07T17:33:16;8.35;;;3.40;;
28625;SDS011;18905;42.668;23.364;2023-05-07T17:35:41;6.80;;;3.60;;
28625;SDS011;18905;42.668;23.364;2023-05-07T17:38:07;8.35;;;3.65;;
28625;SDS011;18905;42.668;23.364;2023-05-07T17:40:32;7.72;;;4.30;;
28625;SDS011;18905;42.668;23.364;2023-05-07T17:50:36;9.68;;;4.35;;
28625;SDS011;18905;42.668;23.364;2023-05-07T17:53:02;10.30;;;3.90;;
28625;SDS011;18905;42.668;23.364;2023-05-07T17:55:29;6.18;;;3.70;;
28625;SDS011;18905;42.668;23.364;2023-05-07T17:57:57;11.43;;;3.80;;
28625;SDS011;18905;42.668;23.364;2023-05-07T18:00:24;9.80;;;3.83;;
28625;SDS011;18905;42.668;23.364;2023-05-07T18:02:53;9.57;;;4.00;;
28625;SDS011;18905;42.668;23.364;2023-05-07T18:05:19;7.20;;;3.72;;
28625;SDS011;18905;42.668;23.364;2023-05-07T18:07:45;6.90;;;3.83;;
28625;SDS011;18905;42.668;23.364;2023-05-07T18:10:10;9.82;;;4.30;;
28625;SDS011;18905;42.668;23.364;2023-05-07T18:12:36;10.90;;;3.88;;
28625;SDS011;18905;42.668;23.364;2023-05-07T18:15:02;6.47;;;3.72;;
28625;SDS011;18905;42.668;23.364;2023-05-07T18:17:28;11.70;;;3.80;;
28625;SDS011;18905;42.668;23.364;2023-05-07T18:19:53;6.30;;;3.85;;
28625;SDS011;18905;42.668;23.364;2023-05-07T18:22:19;8.23;;;4.15;;
28625;SDS011;18905;42.668;23.364;2023-05-07T18:24:45;10.60;;;4.50;;
28625;SDS011;18905;42.668;23.364;2023-05-07T18:27:10;8.70;;;4.43;;
28625;SDS011;18905;42.668;23.364;2023-05-07T18:29:37;7.93;;;4.30;;
28625;SDS011;18905;42.668;23.364;2023-05-07T18:32:03;8.55;;;4.32;;
28625;SDS011;18905;42.668;23.364;2023-05-07T18:34:29;11.13;;;4.85;;
28625;SDS011;18905;42.668;23.364;2023-05-07T18:36:54;11.57;;;4.38;;
28625;SDS011;18905;42.668;23.364;2023-05-07T18:39:21;13.77;;;4.95;;
28625;SDS011;18905;42.668;23.364;2023-05-07T18:41:47;9.68;;;4.63;;
28625;SDS011;18905;42.668;23.364;2023-05-07T18:44:14;12.00;;;5.32;;
28625;SDS011;18905;42.668;23.364;2023-05-07T18:46:41;10.70;;;4.95;;
28625;SDS011;18905;42.668;23.364;2023-05-07T18:49:08;13.57;;;5.00;;
28625;SDS011;18905;42.668;23.364;2023-05-07T18:51:33;16.45;;;5.30;;
28625;SDS011;18905;42.668;23.364;2023-05-07T18:53:59;15.15;;;5.68;;
28625;SDS011;18905;42.668;23.364;2023-05-07T18:56:26;25.35;;;14.85;;
28625;SDS011;18905;42.668;23.364;2023-05-07T18:58:51;9.77;;;6.10;;
28625;SDS011;18905;42.668;23.364;2023-05-07T19:01:17;10.77;;;5.00;;
28625;SDS011;18905;42.668;23.364;2023-05-07T19:03:43;12.48;;;4.95;;
28625;SDS011;18905;42.668;23.364;2023-05-07T19:06:08;10.23;;;5.53;;
28625;SDS011;18905;42.668;23.364;2023-05-07T19:08:34;9.55;;;5.20;;
28625;SDS011;18905;42.668;23.364;2023-05-07T19:11:00;10.02;;;4.63;;
28625;SDS011;18905;42.668;23.364;2023-05-07T19:13:26;8.50;;;4.40;;
28625;SDS011;18905;42.668;23.364;2023-05-07T19:15:52;8.77;;;4.45;;
28625;SDS011;18905;42.668;23.364;2023-05-07T19:18:18;11.68;;;4.53;;
28625;SDS011;18905;42.668;23.364;2023-05-07T19:20:44;10.07;;;4.43;;
28625;SDS011;18905;42.668;23.364;2023-05-07T19:23:11;8.25;;;4.20;;
28625;SDS011;18905;42.668;23.364;2023-05-07T19:25:37;7.50;;;4.57;;
28625;SDS011;18905;42.668;23.364;2023-05-07T19:28:03;10.30;;;4.63;;
28625;SDS011;18905;42.668;23.364;2023-05-07T19:30:28;7.35;;;4.25;;
28625;SDS011;18905;42.668;23.364;2023-05-07T19:32:54;8.50;;;4.47;;
28625;SDS011;18905;42.668;23.364;2023-05-07T19:35:20;10.57;;;4.53;;
28625;SDS011;18905;42.668;23.364;2023-05-07T19:37:46;6.40;;;4.45;;
28625;SDS011;18905;42.668;23.364;2023-05-07T19:40:11;9.52;;;4.80;;
28625;SDS011;18905;42.668;23.364;2023-05-07T19:42:38;10.88;;;6.88;;
28625;SDS011;18905;42.668;23.364;2023-05-07T19:45:04;6.00;;;4.75;;
28625;SDS011;18905;42.668;23.364;2023-05-07T19:47:30;7.15;;;5.00;;
28625;SDS011;18905;42.668;23.364;2023-05-07T19:49:56;9.48;;;4.57;;
28625;SDS011;18905;42.668;23.364;2023-05-07T19:52:22;13.07;;;7.35;;